createdAt,value
2022-10-07T00:01:25.420Z,8.45
2022-10-07T00:03:55.013Z,4.60
2022-10-07T00:06:24.788Z,8.45
2022-10-07T00:08:55.200Z,7.70
2022-10-07T00:11:27.210Z,5.90
2022-10-07T00:13:59.226Z,6.28
2022-10-07T00:16:32.937Z,5.50
2022-10-07T00:19:04.081Z,11.10
2022-10-07T00:21:35.589Z,7.85
2022-10-07T00:24:05.421Z,6.97
2022-10-07T00:26:37.048Z,8.13
2022-10-07T00:29:07.341Z,6.40
2022-10-07T00:31:38.833Z,7.22
2022-10-07T00:34:07.878Z,6.82
2022-10-07T00:36:38.830Z,4.47
2022-10-07T00:39:11.919Z,5.85
2022-10-07T00:41:43.842Z,5.38
2022-10-07T00:44:44.129Z,8.20
2022-10-07T00:47:25.036Z,4.60
2022-10-07T00:50:00.991Z,5.90
2022-10-07T00:52:33.603Z,7.57
2022-10-07T00:55:06.716Z,10.75
2022-10-07T00:57:37.887Z,13.20
2022-10-07T01:00:09.114Z,8.10
2022-10-07T01:02:41.552Z,10.65
2022-10-07T01:05:15.079Z,12.52
2022-10-07T01:07:54.895Z,10.00
2022-10-07T01:10:32.534Z,8.02
2022-10-07T01:13:07.682Z,6.50
2022-10-07T01:15:41.258Z,15.05
2022-10-07T01:18:23.131Z,9.75
2022-10-07T01:20:58.210Z,8.77
2022-10-07T01:23:45.438Z,12.10
2022-10-07T01:26:46.977Z,6.80
2022-10-07T01:29:20.829Z,11.93
2022-10-07T01:31:58.549Z,8.60
2022-10-07T01:34:28.543Z,10.40
2022-10-07T01:37:00.634Z,10.13
2022-10-07T01:39:37.653Z,7.30
2022-10-07T01:42:08.371Z,11.13
2022-10-07T01:44:37.771Z,10.20
2022-10-07T01:47:07.427Z,9.02
2022-10-07T01:49:37.000Z,9.25
2022-10-07T01:52:26.908Z,8.48
2022-10-07T01:55:30.642Z,12.07
2022-10-07T01:58:16.712Z,4.85
2022-10-07T02:00:50.942Z,7.70
2022-10-07T02:03:50.649Z,6.18
2022-10-07T02:06:31.974Z,9.32
2022-10-07T02:09:10.473Z,9.57
2022-10-07T02:11:43.982Z,10.40
2022-10-07T02:14:20.637Z,9.55
2022-10-07T02:16:54.556Z,14.65
2022-10-07T02:19:31.025Z,7.32
2022-10-07T02:22:02.973Z,15.73
2022-10-07T02:24:37.147Z,12.18
2022-10-07T02:27:12.307Z,13.77
2022-10-07T02:29:46.957Z,9.00
2022-10-07T02:32:20.736Z,9.35
2022-10-07T02:34:55.992Z,9.32
2022-10-07T02:37:29.332Z,14.00
2022-10-07T02:40:01.499Z,8.95
2022-10-07T02:42:39.149Z,8.32
2022-10-07T02:45:21.175Z,8.18
2022-10-07T02:47:59.348Z,10.30
2022-10-07T02:50:37.387Z,11.88
2022-10-07T02:53:07.585Z,10.18
2022-10-07T02:55:37.099Z,8.45
2022-10-07T02:58:10.074Z,10.63
2022-10-07T03:00:48.505Z,12.07
2022-10-07T03:03:18.430Z,8.27
2022-10-07T03:06:01.717Z,8.55
2022-10-07T03:08:32.464Z,8.05
2022-10-07T03:11:02.646Z,25.05
2022-10-07T03:13:35.167Z,18.20
2022-10-07T03:16:14.577Z,10.20
2022-10-07T03:18:50.354Z,13.27
2022-10-07T03:21:34.331Z,11.52
2022-10-07T03:24:06.004Z,13.10
2022-10-07T03:26:42.118Z,13.02
2022-10-07T03:29:11.378Z,9.05
2022-10-07T03:31:43.248Z,8.40
2022-10-07T03:34:13.033Z,7.88
2022-10-07T03:36:45.425Z,9.10
2022-10-07T03:39:14.974Z,7.45
2022-10-07T03:41:44.525Z,14.82
2022-10-07T03:44:14.688Z,7.40
2022-10-07T03:46:45.230Z,11.27
2022-10-07T03:49:15.598Z,8.30
2022-10-07T03:51:44.842Z,6.45
2022-10-07T03:54:14.195Z,9.13
2022-10-07T03:56:43.162Z,9.20
2022-10-07T03:59:12.255Z,8.82
2022-10-07T04:01:41.470Z,6.28
2022-10-07T04:04:12.001Z,9.90
2022-10-07T04:06:43.436Z,9.27
2022-10-07T04:09:15.629Z,7.57
2022-10-07T04:11:46.886Z,6.15
2022-10-07T04:14:16.875Z,7.85
2022-10-07T04:16:46.029Z,8.50
2022-10-07T04:19:17.027Z,9.23
2022-10-07T04:21:46.385Z,11.93
2022-10-07T04:24:16.835Z,10.93
2022-10-07T04:26:45.805Z,5.70
2022-10-07T04:29:16.262Z,10.90
2022-10-07T04:31:45.641Z,9.32
2022-10-07T04:34:17.387Z,7.22
2022-10-07T04:36:46.383Z,10.27
2022-10-07T04:39:17.827Z,7.38
2022-10-07T04:41:55.221Z,6.50
2022-10-07T04:44:29.982Z,13.02
2022-10-07T04:47:06.426Z,11.75
2022-10-07T04:49:38.499Z,8.55
2022-10-07T04:52:10.383Z,8.10
2022-10-07T04:54:42.104Z,7.47
2022-10-07T04:57:13.442Z,7.63
2022-10-07T04:59:43.387Z,12.55
2022-10-07T05:02:15.845Z,7.45
2022-10-07T05:04:47.834Z,10.85
2022-10-07T05:07:18.315Z,8.65
2022-10-07T05:09:47.453Z,9.13
2022-10-07T05:12:29.628Z,8.20
2022-10-07T05:15:01.584Z,8.73
2022-10-07T05:17:31.183Z,8.30
2022-10-07T05:20:06.803Z,7.78
2022-10-07T05:22:35.991Z,10.90
2022-10-07T05:25:07.651Z,14.00
2022-10-07T05:27:37.784Z,9.85
2022-10-07T05:30:08.846Z,6.97
2022-10-07T05:32:38.800Z,9.02
2022-10-07T05:35:10.324Z,9.13
2022-10-07T05:37:52.276Z,11.65
2022-10-07T05:40:22.206Z,8.23
2022-10-07T05:42:53.105Z,7.43
2022-10-07T05:45:23.596Z,11.57
2022-10-07T05:47:52.533Z,11.52
2022-10-07T05:50:23.303Z,7.53
2022-10-07T05:52:52.478Z,6.18
2022-10-07T05:55:21.626Z,10.82
2022-10-07T05:57:50.721Z,8.52
2022-10-07T06:00:20.034Z,11.88
2022-10-07T06:02:53.284Z,14.02
2022-10-07T06:05:24.059Z,9.88
2022-10-07T06:07:53.439Z,9.40
2022-10-07T06:10:40.119Z,10.18
2022-10-07T06:13:09.670Z,9.75
2022-10-07T06:15:42.051Z,10.05
2022-10-07T06:18:11.307Z,8.40
2022-10-07T06:20:42.268Z,10.80
2022-10-07T06:23:11.301Z,8.63
2022-10-07T06:25:41.769Z,6.95
2022-10-07T06:28:10.931Z,5.63
2022-10-07T06:30:40.095Z,8.65
2022-10-07T06:33:09.137Z,6.50
2022-10-07T06:35:38.514Z,10.80
2022-10-07T06:38:08.903Z,7.07
2022-10-07T06:40:38.141Z,9.70
2022-10-07T06:43:07.269Z,9.05
2022-10-07T06:45:46.290Z,9.40
2022-10-07T06:48:15.967Z,6.85
2022-10-07T06:50:52.125Z,7.70
2022-10-07T06:53:23.745Z,10.75
2022-10-07T06:55:57.664Z,17.95
2022-10-07T06:58:28.711Z,14.18
2022-10-07T07:00:59.778Z,10.32
2022-10-07T07:03:30.004Z,13.68
2022-10-07T07:06:05.419Z,10.00
2022-10-07T07:08:38.922Z,7.68
2022-10-07T07:11:26.002Z,9.23
2022-10-07T07:13:56.288Z,15.70
2022-10-07T07:16:26.377Z,11.73
2022-10-07T07:18:57.570Z,11.43
2022-10-07T07:21:29.013Z,8.35
2022-10-07T07:24:00.187Z,14.23
2022-10-07T07:26:30.289Z,11.82
2022-10-07T07:29:01.403Z,10.35
2022-10-07T07:31:37.331Z,11.57
2022-10-07T07:34:11.282Z,14.50
2022-10-07T07:36:46.378Z,14.55
2022-10-07T07:39:19.656Z,11.55
2022-10-07T07:41:54.373Z,13.65
2022-10-07T07:44:26.002Z,12.80
2022-10-07T07:46:58.270Z,19.25
2022-10-07T07:49:31.696Z,10.95
2022-10-07T07:52:01.397Z,14.02
2022-10-07T07:54:37.571Z,13.30
2022-10-07T07:57:06.739Z,23.98
2022-10-07T07:59:38.247Z,12.50
2022-10-07T08:02:08.844Z,14.60
2022-10-07T08:04:40.441Z,10.98
2022-10-07T08:07:13.115Z,18.63
2022-10-07T08:09:46.240Z,17.80
2022-10-07T08:12:15.822Z,17.50
2022-10-07T08:14:45.334Z,17.15
2022-10-07T08:17:15.718Z,17.85
2022-10-07T08:19:45.093Z,16.77
2022-10-07T08:22:17.604Z,8.77
2022-10-07T08:24:50.119Z,12.43
2022-10-07T08:27:21.119Z,18.15
2022-10-07T08:29:50.193Z,18.00
2022-10-07T08:32:19.406Z,13.23
2022-10-07T08:34:48.386Z,9.82
2022-10-07T08:37:17.484Z,13.32
2022-10-07T08:39:46.495Z,13.95
2022-10-07T08:42:28.870Z,13.30
2022-10-07T08:44:57.858Z,12.80
2022-10-07T08:47:31.402Z,7.85
2022-10-07T08:50:08.077Z,8.93
2022-10-07T08:52:51.100Z,11.18
2022-10-07T08:55:28.943Z,8.13
2022-10-07T08:58:30.991Z,12.00
2022-10-07T09:01:08.089Z,8.98
2022-10-07T09:03:46.164Z,14.43
2022-10-07T09:06:24.848Z,14.25
2022-10-07T09:09:03.268Z,9.50
2022-10-07T09:11:35.851Z,10.18
2022-10-07T09:14:23.800Z,5.85
2022-10-07T09:16:55.599Z,7.28
2022-10-07T09:19:31.930Z,10.85
2022-10-07T09:22:05.229Z,12.00
2022-10-07T09:24:36.283Z,6.40
2022-10-07T09:27:14.316Z,7.38
2022-10-07T09:29:48.333Z,6.53
2022-10-07T09:32:20.009Z,5.55
2022-10-07T09:34:49.319Z,11.85
2022-10-07T09:37:23.188Z,9.05
2022-10-07T09:39:54.720Z,8.27
2022-10-07T09:42:34.446Z,9.40
2022-10-07T09:45:20.764Z,7.38
2022-10-07T09:47:53.856Z,7.55
2022-10-07T09:50:38.458Z,7.80
2022-10-07T09:53:21.702Z,7.90
2022-10-07T09:55:53.769Z,7.43
2022-10-07T09:58:30.529Z,5.90
2022-10-07T10:01:03.175Z,6.80
2022-10-07T10:03:34.504Z,11.32
2022-10-07T10:06:06.084Z,6.80
2022-10-07T10:08:38.578Z,7.43
2022-10-07T10:11:25.728Z,7.28
2022-10-07T10:13:56.026Z,6.95
2022-10-07T10:16:40.427Z,6.13
2022-10-07T10:19:25.664Z,5.07
2022-10-07T10:21:56.940Z,4.88
2022-10-07T10:24:47.563Z,9.75
2022-10-07T10:27:22.522Z,11.32
2022-10-07T10:29:59.186Z,5.93
2022-10-07T10:33:14.599Z,11.10
2022-10-07T10:35:56.123Z,6.78
2022-10-07T10:38:40.514Z,7.25
2022-10-07T10:41:23.389Z,5.75
2022-10-07T10:44:13.830Z,7.88
2022-10-07T10:46:55.097Z,6.28
2022-10-07T10:49:36.138Z,6.38
2022-10-07T10:52:32.208Z,8.15
2022-10-07T10:55:21.634Z,6.90
2022-10-07T10:58:05.406Z,5.40
2022-10-07T11:00:42.191Z,6.63
2022-10-07T11:03:35.338Z,7.60
2022-10-07T11:06:11.284Z,9.00
2022-10-07T11:08:41.294Z,9.23
2022-10-07T11:11:13.020Z,5.28
2022-10-07T11:13:52.572Z,12.25
2022-10-07T11:16:27.773Z,8.80
2022-10-07T11:19:02.995Z,11.90
2022-10-07T11:21:39.099Z,7.93
2022-10-07T11:24:16.938Z,8.73
2022-10-07T11:26:52.393Z,6.10
2022-10-07T11:29:30.309Z,8.65
2022-10-07T11:32:06.590Z,7.45
2022-10-07T11:34:44.036Z,9.75
2022-10-07T11:37:23.902Z,7.68
2022-10-07T11:39:54.405Z,8.20
2022-10-07T11:42:27.296Z,11.60
2022-10-07T11:45:03.557Z,6.53
2022-10-07T11:47:38.055Z,10.07
2022-10-07T11:50:15.061Z,11.82
2022-10-07T11:52:49.363Z,10.07
2022-10-07T11:55:26.102Z,8.52
2022-10-07T11:57:59.796Z,8.20
2022-10-07T12:00:33.074Z,7.63
2022-10-07T12:03:14.080Z,14.13
2022-10-07T12:06:11.775Z,6.90
2022-10-07T12:08:44.117Z,9.02
2022-10-07T12:11:57.580Z,8.93
2022-10-07T12:14:42.044Z,11.15
2022-10-07T12:17:28.165Z,8.35
2022-10-07T12:20:46.380Z,7.78
2022-10-07T12:23:47.403Z,10.13
2022-10-07T12:26:46.383Z,7.03
2022-10-07T12:29:32.585Z,7.85
2022-10-07T12:32:02.477Z,7.03
2022-10-07T12:34:43.812Z,15.35
2022-10-07T12:37:50.048Z,9.20
2022-10-07T12:40:31.199Z,8.98
2022-10-07T12:43:10.590Z,11.95
2022-10-07T12:45:43.515Z,8.95
2022-10-07T12:48:21.338Z,6.55
2022-10-07T12:50:54.051Z,10.05
2022-10-07T12:53:27.945Z,8.35
2022-10-07T12:55:59.263Z,6.80
2022-10-07T12:59:17.542Z,5.43
2022-10-07T13:02:24.398Z,7.65
2022-10-07T13:05:20.104Z,9.35
2022-10-07T13:08:22.525Z,8.43
2022-10-07T13:11:57.430Z,11.75
2022-10-07T13:14:33.316Z,6.75
2022-10-07T13:17:43.902Z,6.65
2022-10-07T13:20:39.940Z,9.10
2022-10-07T13:23:17.459Z,10.23
2022-10-07T13:25:53.024Z,6.20
2022-10-07T13:28:30.409Z,9.13
2022-10-07T13:31:16.650Z,6.78
2022-10-07T13:33:45.891Z,7.68
2022-10-07T13:36:27.585Z,9.35
2022-10-07T13:39:13.251Z,8.63
2022-10-07T13:41:47.518Z,7.38
2022-10-07T13:44:21.505Z,9.73
2022-10-07T13:46:58.531Z,6.25
2022-10-07T13:49:32.146Z,13.07
2022-10-07T13:52:05.092Z,9.45
2022-10-07T13:54:35.668Z,8.30
2022-10-07T13:57:12.575Z,7.10
2022-10-07T13:59:45.997Z,6.00
2022-10-07T14:02:18.107Z,9.32
2022-10-07T14:04:56.448Z,6.93
2022-10-07T14:07:29.155Z,8.80
2022-10-07T14:10:09.572Z,10.23
2022-10-07T14:12:43.073Z,9.95
2022-10-07T14:15:19.649Z,13.30
2022-10-07T14:17:51.882Z,6.15
2022-10-07T14:20:26.585Z,7.25
2022-10-07T14:23:01.645Z,13.82
2022-10-07T14:25:33.482Z,6.50
2022-10-07T14:28:18.606Z,7.85
2022-10-07T14:31:38.482Z,6.00
2022-10-07T14:34:33.636Z,7.63
2022-10-07T14:37:09.110Z,7.75
2022-10-07T14:39:40.440Z,8.50
2022-10-07T14:42:18.689Z,6.95
2022-10-07T14:44:49.160Z,10.25
2022-10-07T14:47:23.419Z,6.00
2022-10-07T14:49:53.873Z,6.82
2022-10-07T14:52:31.675Z,7.85
2022-10-07T14:55:05.522Z,10.05
2022-10-07T14:57:34.979Z,7.88
2022-10-07T15:00:05.576Z,5.97
2022-10-07T15:02:36.114Z,10.07
2022-10-07T15:05:05.748Z,6.88
2022-10-07T15:07:34.944Z,6.35
2022-10-07T15:10:04.116Z,9.35
2022-10-07T15:12:33.248Z,8.70
2022-10-07T15:15:02.287Z,5.65
2022-10-07T15:17:31.379Z,5.63
2022-10-07T15:20:01.882Z,6.57
2022-10-07T15:22:30.937Z,6.32
2022-10-07T15:24:59.957Z,9.35
2022-10-07T15:27:29.149Z,11.85
2022-10-07T15:29:58.465Z,6.00
2022-10-07T15:32:29.459Z,7.40
2022-10-07T15:34:58.801Z,6.47
2022-10-07T15:37:34.109Z,5.93
2022-10-07T15:40:03.232Z,8.98
2022-10-07T15:42:32.139Z,6.15
2022-10-07T15:45:01.282Z,8.10
2022-10-07T15:47:35.259Z,7.40
2022-10-07T15:50:04.949Z,6.60
2022-10-07T15:52:35.241Z,8.23
2022-10-07T15:55:07.587Z,9.27
2022-10-07T15:57:37.330Z,7.30
2022-10-07T16:00:07.615Z,8.45
2022-10-07T16:02:42.924Z,7.95
2022-10-07T16:05:12.710Z,7.90
2022-10-07T16:07:43.351Z,15.82
2022-10-07T16:10:13.268Z,7.90
2022-10-07T16:12:42.423Z,8.05
2022-10-07T16:15:12.168Z,8.63
2022-10-07T16:17:41.158Z,6.07
2022-10-07T16:20:11.626Z,6.80
2022-10-07T16:22:42.557Z,7.97
2022-10-07T16:25:12.488Z,7.05
2022-10-07T16:28:14.043Z,6.72
2022-10-07T16:30:49.962Z,6.93
2022-10-07T16:33:19.671Z,8.93
2022-10-07T16:35:48.638Z,6.55
2022-10-07T16:38:20.730Z,9.55
2022-10-07T16:40:54.282Z,7.35
2022-10-07T16:43:23.359Z,7.53
2022-10-07T16:45:52.338Z,6.20
2022-10-07T16:48:21.537Z,6.97
2022-10-07T16:50:50.605Z,6.97
2022-10-07T16:53:20.967Z,8.23
2022-10-07T16:55:49.941Z,7.68
2022-10-07T16:58:19.152Z,8.93
2022-10-07T17:00:48.293Z,8.35
2022-10-07T17:03:17.231Z,10.77
2022-10-07T17:05:46.349Z,9.18
2022-10-07T17:08:15.932Z,8.35
2022-10-07T17:10:46.399Z,9.27
2022-10-07T17:13:18.502Z,9.63
2022-10-07T17:15:52.495Z,7.80
2022-10-07T17:18:21.774Z,7.90
2022-10-07T17:20:51.655Z,9.10
2022-10-07T17:23:26.921Z,10.90
2022-10-07T17:25:57.593Z,12.35
2022-10-07T17:28:28.822Z,10.38
2022-10-07T17:31:06.183Z,7.40
2022-10-07T17:33:35.826Z,6.82
2022-10-07T17:36:07.863Z,8.10
2022-10-07T17:38:40.382Z,9.25
2022-10-07T17:41:15.306Z,7.47
2022-10-07T17:43:44.722Z,9.07
2022-10-07T17:46:17.613Z,8.00
2022-10-07T17:48:48.958Z,10.20
2022-10-07T17:51:21.002Z,7.75
2022-10-07T17:53:51.066Z,8.77
2022-10-07T17:56:22.312Z,10.18
2022-10-07T17:58:51.788Z,9.60
2022-10-07T18:01:24.068Z,9.68
2022-10-07T18:03:55.286Z,8.50
2022-10-07T18:06:26.013Z,8.35
2022-10-07T18:08:55.922Z,13.52
2022-10-07T18:11:46.889Z,8.93
2022-10-07T18:14:39.207Z,8.15
2022-10-07T18:17:09.583Z,7.72
2022-10-07T18:19:41.227Z,7.38
2022-10-07T18:22:10.331Z,8.50
2022-10-07T18:24:39.354Z,8.57
2022-10-07T18:27:09.968Z,10.55
2022-10-07T18:29:39.420Z,8.60
2022-10-07T18:32:09.110Z,9.70
2022-10-07T18:34:38.215Z,16.98
2022-10-07T18:37:07.209Z,9.18
2022-10-07T18:39:36.211Z,8.65
2022-10-07T18:42:05.503Z,10.68
2022-10-07T18:44:35.819Z,8.75
2022-10-07T18:47:04.971Z,9.20
2022-10-07T18:49:34.279Z,9.68
2022-10-07T18:52:05.097Z,11.77
2022-10-07T18:54:34.278Z,11.40
2022-10-07T18:57:03.742Z,12.55
2022-10-07T18:59:32.707Z,10.35
2022-10-07T19:02:03.726Z,10.13
2022-10-07T19:04:33.717Z,10.00
2022-10-07T19:07:03.236Z,11.18
2022-10-07T19:09:32.778Z,13.50
2022-10-07T19:12:01.775Z,10.80
2022-10-07T19:14:31.127Z,18.17
2022-10-07T19:17:01.889Z,18.27
2022-10-07T19:19:32.563Z,12.55
2022-10-07T19:22:01.545Z,12.55
2022-10-07T19:24:44.479Z,11.00
2022-10-07T19:27:14.317Z,12.35
2022-10-07T19:29:43.699Z,12.68
2022-10-07T19:32:15.044Z,14.50
2022-10-07T19:34:44.143Z,16.52
2022-10-07T19:37:13.340Z,12.40
2022-10-07T19:39:42.536Z,12.35
2022-10-07T19:42:12.206Z,11.57
2022-10-07T19:44:41.126Z,15.30
2022-10-07T19:47:10.031Z,10.85
2022-10-07T19:49:40.329Z,14.50
2022-10-07T19:52:09.304Z,13.00
2022-10-07T19:54:44.812Z,15.80
2022-10-07T19:57:14.012Z,13.98
2022-10-07T19:59:43.701Z,16.73
2022-10-07T20:02:13.477Z,16.55
2022-10-07T20:04:48.161Z,13.85
2022-10-07T20:07:18.243Z,15.10
2022-10-07T20:09:47.239Z,14.32
2022-10-07T20:12:16.332Z,12.32
2022-10-07T20:14:45.451Z,14.63
2022-10-07T20:17:14.502Z,12.48
2022-10-07T20:19:44.843Z,18.23
2022-10-07T20:22:13.816Z,17.77
2022-10-07T20:24:45.380Z,12.73
2022-10-07T20:27:14.530Z,12.27
2022-10-07T20:32:37.498Z,15.90
2022-10-07T20:35:11.509Z,12.85
2022-10-07T20:37:40.639Z,16.83
2022-10-07T20:40:29.222Z,13.13
2022-10-07T20:43:00.815Z,13.48
2022-10-07T20:45:30.188Z,16.05
2022-10-07T20:48:01.339Z,18.40
2022-10-07T20:50:30.398Z,14.93
2022-10-07T20:52:59.404Z,14.15
2022-10-07T20:55:31.934Z,13.40
2022-10-07T20:58:03.133Z,15.13
2022-10-07T21:00:32.171Z,15.48
2022-10-07T21:03:02.534Z,16.13
2022-10-07T21:05:31.566Z,17.75
2022-10-07T21:08:00.542Z,16.25
2022-10-07T21:10:29.479Z,15.38
2022-10-07T21:12:58.556Z,16.90
2022-10-07T21:15:27.453Z,17.92
2022-10-07T21:17:57.134Z,12.93
2022-10-07T21:20:27.609Z,16.02
2022-10-07T21:22:56.830Z,14.32
2022-10-07T21:25:26.487Z,13.93
2022-10-07T21:27:55.446Z,11.80
2022-10-07T21:30:24.608Z,14.30
2022-10-07T21:32:53.731Z,15.95
2022-10-07T21:35:23.728Z,18.23
2022-10-07T21:37:53.985Z,13.88
2022-10-07T21:40:22.992Z,18.63
2022-10-07T21:42:52.143Z,16.35
2022-10-07T21:45:21.273Z,13.52
2022-10-07T21:47:50.511Z,14.13
2022-10-07T21:50:19.519Z,14.95
2022-10-07T21:52:49.151Z,16.52
2022-10-07T21:55:19.813Z,15.75
2022-10-07T21:57:48.817Z,17.10
2022-10-07T22:00:18.026Z,19.98
2022-10-07T22:02:47.260Z,16.63
2022-10-07T22:05:16.578Z,16.13
2022-10-07T22:08:03.050Z,21.13
2022-10-07T22:10:33.340Z,13.77
2022-10-07T22:13:02.294Z,21.65
2022-10-07T22:15:31.322Z,19.30
2022-10-07T22:18:00.553Z,20.55
2022-10-07T22:20:29.572Z,20.77
2022-10-07T22:23:00.071Z,22.08
2022-10-07T22:25:29.140Z,16.20
2022-10-07T22:27:59.662Z,28.50
2022-10-07T22:30:29.093Z,19.10
2022-10-07T22:32:58.023Z,19.20
2022-10-07T22:35:32.334Z,19.20
2022-10-07T22:38:11.110Z,17.35
2022-10-07T22:40:40.093Z,24.40
2022-10-07T22:43:10.531Z,21.02
2022-10-07T22:45:39.589Z,20.02
2022-10-07T22:48:08.559Z,22.63
2022-10-07T22:50:37.669Z,16.70
2022-10-07T22:53:06.598Z,16.48
2022-10-07T22:55:37.127Z,16.17
2022-10-07T22:58:06.265Z,18.08
2022-10-07T23:00:37.765Z,18.88
2022-10-07T23:03:08.354Z,18.50
2022-10-07T23:05:38.178Z,17.58
2022-10-07T23:08:07.218Z,15.60
2022-10-07T23:10:36.153Z,17.33
2022-10-07T23:13:05.631Z,18.60
2022-10-07T23:15:36.199Z,18.02
2022-10-07T23:18:05.603Z,18.15
2022-10-07T23:20:34.720Z,16.17
2022-10-07T23:23:04.168Z,15.95
2022-10-07T23:25:33.447Z,18.45
2022-10-07T23:28:02.538Z,22.15
2022-10-07T23:30:31.506Z,16.75
2022-10-07T23:33:03.278Z,18.63
2022-10-07T23:35:37.426Z,26.75
2022-10-07T23:38:11.113Z,17.90
2022-10-07T23:40:40.655Z,14.48
2022-10-07T23:43:11.179Z,21.77
2022-10-07T23:45:42.238Z,19.42
2022-10-07T23:48:14.639Z,21.05
2022-10-07T23:50:44.771Z,20.23
2022-10-07T23:53:13.852Z,18.38
2022-10-07T23:55:52.946Z,14.82
2022-10-07T23:58:31.990Z,19.98
